createdAt,value
2019-04-07T00:00:11.777Z,7.53
2019-04-07T00:02:39.674Z,8.33
2019-04-07T00:05:11.886Z,8.13
2019-04-07T00:07:37.892Z,8.37
2019-04-07T00:10:07.193Z,8.03
2019-04-07T00:12:35.823Z,8.70
2019-04-07T00:15:04.809Z,8.37
2019-04-07T00:17:32.722Z,8.40
2019-04-07T00:20:00.904Z,9.37
2019-04-07T00:22:28.891Z,8.27
2019-04-07T00:24:56.807Z,8.73
2019-04-07T00:27:25.742Z,8.30
2019-04-07T00:29:54.256Z,8.20
2019-04-07T00:32:22.246Z,8.73
2019-04-07T00:34:50.180Z,8.03
2019-04-07T00:37:18.345Z,8.37
2019-04-07T00:39:46.656Z,7.80
2019-04-07T00:42:14.871Z,7.77
2019-04-07T00:44:43.285Z,7.90
2019-04-07T00:47:11.283Z,7.53
2019-04-07T00:49:39.220Z,7.40
2019-04-07T00:52:08.312Z,7.53
2019-04-07T00:54:36.993Z,7.60
2019-04-07T00:57:05.426Z,7.20
2019-04-07T00:59:33.511Z,7.33
2019-04-07T01:02:01.556Z,7.20
2019-04-07T01:04:29.582Z,7.33
2019-04-07T01:06:57.533Z,6.73
2019-04-07T01:09:25.354Z,7.00
2019-04-07T01:11:53.986Z,7.10
2019-04-07T01:14:22.461Z,6.57
2019-04-07T01:16:50.708Z,7.07
2019-04-07T01:19:18.924Z,7.70
2019-04-07T01:22:06.500Z,7.17
2019-04-07T01:24:35.223Z,6.93
2019-04-07T01:27:03.147Z,6.60
2019-04-07T01:29:31.057Z,6.60
2019-04-07T01:31:59.430Z,6.47
2019-04-07T01:34:27.497Z,6.70
2019-04-07T01:36:55.692Z,6.67
2019-04-07T01:39:24.118Z,7.03
2019-04-07T01:42:09.232Z,7.07
2019-04-07T01:44:57.290Z,6.50
2019-04-07T01:47:30.661Z,6.87
2019-04-07T01:50:09.749Z,6.60
2019-04-07T01:53:02.705Z,6.80
2019-04-07T01:55:52.926Z,6.93
2019-04-07T01:58:36.040Z,6.67
2019-04-07T02:01:38.950Z,6.57
2019-04-07T02:04:25.016Z,6.60
2019-04-07T02:07:14.815Z,6.93
2019-04-07T02:10:08.684Z,7.43
2019-04-07T02:13:01.083Z,7.17
2019-04-07T02:15:48.439Z,7.33
2019-04-07T02:18:27.939Z,7.27
2019-04-07T02:21:14.175Z,7.30
2019-04-07T02:24:08.223Z,7.73
2019-04-07T02:26:47.286Z,7.07
2019-04-07T02:29:50.060Z,7.20
2019-04-07T02:32:55.822Z,7.13
2019-04-07T02:35:36.478Z,7.70
2019-04-07T02:38:23.731Z,7.27
2019-04-07T02:41:11.075Z,7.10
2019-04-07T02:43:59.681Z,7.60
2019-04-07T02:47:06.374Z,6.90
2019-04-07T02:49:57.266Z,6.77
2019-04-07T02:52:47.461Z,7.27
2019-04-07T02:55:37.933Z,7.10
2019-04-07T02:58:24.122Z,7.47
2019-04-07T03:01:31.149Z,7.33
2019-04-07T03:04:28.963Z,7.80
2019-04-07T03:07:17.611Z,7.80
2019-04-07T03:10:03.077Z,7.30
2019-04-07T03:12:48.628Z,7.70
2019-04-07T03:15:38.873Z,7.97
2019-04-07T03:18:35.887Z,7.23
2019-04-07T03:21:22.599Z,8.13
2019-04-07T03:24:25.020Z,7.50
2019-04-07T03:27:10.835Z,7.23
2019-04-07T03:29:58.890Z,7.70
2019-04-07T03:32:57.604Z,7.63
2019-04-07T03:35:50.964Z,7.00
2019-04-07T03:38:33.531Z,8.57
2019-04-07T03:41:13.559Z,8.20
2019-04-07T03:43:55.907Z,8.60
2019-04-07T03:46:30.961Z,9.30
2019-04-07T03:49:10.049Z,8.20
2019-04-07T03:52:04.401Z,9.60
2019-04-07T03:55:03.313Z,10.03
2019-04-07T03:58:03.703Z,9.73
2019-04-07T04:01:12.175Z,9.80
2019-04-07T04:03:46.626Z,10.07
2019-04-07T04:06:32.170Z,10.23
2019-04-07T04:09:06.703Z,9.67
2019-04-07T04:11:41.333Z,9.40
2019-04-07T04:14:20.143Z,10.23
2019-04-07T04:16:50.960Z,9.90
2019-04-07T04:19:19.126Z,9.70
2019-04-07T04:21:47.888Z,9.33
2019-04-07T04:24:16.772Z,10.27
2019-04-07T04:26:44.851Z,9.67
2019-04-07T04:29:12.872Z,9.37
2019-04-07T04:31:40.952Z,10.27
2019-04-07T04:34:09.953Z,10.40
2019-04-07T04:36:38.073Z,10.60
2019-04-07T04:39:06.581Z,11.40
2019-04-07T04:41:34.855Z,12.40
2019-04-07T04:44:03.010Z,12.17
2019-04-07T04:46:31.050Z,10.73
2019-04-07T04:48:58.987Z,10.43
2019-04-07T04:51:26.934Z,10.93
2019-04-07T04:53:54.833Z,10.10
2019-04-07T04:56:22.871Z,10.87
2019-04-07T04:58:51.840Z,10.70
2019-04-07T05:01:21.877Z,10.63
2019-04-07T05:03:50.647Z,10.73
2019-04-07T05:06:18.641Z,10.20
2019-04-07T05:08:46.861Z,12.10
2019-04-07T05:11:14.863Z,12.73
2019-04-07T05:13:43.347Z,15.55
2019-04-07T05:16:11.958Z,15.10
2019-04-07T05:18:39.780Z,19.10
2019-04-07T05:21:08.495Z,21.17
2019-04-07T05:23:36.502Z,16.43
2019-04-07T05:26:04.626Z,17.13
2019-04-07T05:28:36.715Z,18.47
2019-04-07T05:31:02.413Z,17.03
2019-04-07T05:33:30.837Z,16.40
2019-04-07T05:35:59.577Z,14.83
2019-04-07T05:38:27.516Z,11.80
2019-04-07T05:40:55.435Z,12.20
2019-04-07T05:43:23.171Z,11.83
2019-04-07T05:45:51.522Z,10.80
2019-04-07T05:48:20.332Z,11.70
2019-04-07T05:50:48.852Z,12.97
2019-04-07T05:53:17.075Z,14.80
2019-04-07T05:55:45.069Z,11.83
2019-04-07T05:58:15.328Z,10.97
2019-04-07T06:00:45.919Z,10.37
2019-04-07T06:03:12.207Z,9.80
2019-04-07T06:05:40.027Z,9.03
2019-04-07T06:08:22.663Z,9.67
2019-04-07T06:10:38.671Z,10.03
2019-04-07T06:13:06.830Z,10.50
2019-04-07T06:15:35.674Z,10.43
2019-04-07T06:18:04.089Z,11.33
2019-04-07T06:20:32.321Z,10.20
2019-04-07T06:23:00.433Z,14.63
2019-04-07T06:25:34.032Z,11.00
2019-04-07T06:27:57.863Z,11.37
2019-04-07T06:30:28.076Z,9.83
2019-04-07T06:32:55.936Z,10.73
2019-04-07T06:35:23.799Z,10.00
2019-04-07T06:37:52.021Z,10.27
2019-04-07T06:40:20.648Z,10.40
2019-04-07T06:42:49.959Z,12.50
2019-04-07T06:45:22.787Z,13.63
2019-04-07T06:47:53.627Z,13.83
2019-04-07T06:50:27.101Z,14.97
2019-04-07T06:53:15.779Z,16.67
2019-04-07T06:56:01.392Z,17.93
2019-04-07T06:58:45.002Z,17.50
2019-04-07T07:01:37.354Z,17.47
2019-04-07T07:04:36.797Z,16.93
2019-04-07T07:07:27.075Z,17.57
2019-04-07T07:10:27.408Z,23.43
2019-04-07T07:12:59.898Z,23.23
2019-04-07T07:15:48.260Z,16.83
2019-04-07T07:18:41.532Z,16.50
2019-04-07T07:21:24.158Z,12.67
2019-04-07T07:23:52.449Z,12.37
2019-04-07T07:26:21.773Z,11.53
2019-04-07T07:28:49.908Z,9.67
2019-04-07T07:31:18.260Z,12.37
2019-04-07T07:33:46.026Z,10.57
2019-04-07T07:36:17.350Z,10.20
2019-04-07T07:38:55.781Z,9.43
2019-04-07T07:41:17.212Z,8.73
2019-04-07T07:43:44.548Z,11.17
2019-04-07T07:46:13.084Z,16.33
2019-04-07T07:48:41.183Z,10.27
2019-04-07T07:51:12.916Z,11.17
2019-04-07T07:53:39.394Z,10.07
2019-04-07T07:56:10.589Z,9.00
2019-04-07T07:58:37.212Z,9.47
2019-04-07T08:01:05.446Z,10.77
2019-04-07T08:03:33.916Z,11.20
2019-04-07T08:06:04.659Z,11.27
2019-04-07T08:08:31.656Z,10.73
2019-04-07T08:11:01.331Z,11.60
2019-04-07T08:13:29.989Z,12.53
2019-04-07T08:15:59.439Z,12.90
2019-04-07T08:18:27.670Z,11.73
2019-04-07T08:20:55.657Z,12.57
2019-04-07T08:23:23.740Z,11.97
2019-04-07T08:25:54.474Z,12.47
2019-04-07T08:28:21.675Z,12.27
2019-04-07T08:30:50.297Z,12.47
2019-04-07T08:33:18.915Z,14.33
2019-04-07T08:35:46.975Z,14.63
2019-04-07T08:38:18.617Z,16.33
2019-04-07T08:40:56.679Z,14.30
2019-04-07T08:43:24.856Z,13.47
2019-04-07T08:45:53.586Z,15.40
2019-04-07T08:48:21.653Z,16.70
2019-04-07T08:50:50.299Z,23.30
2019-04-07T08:53:18.413Z,22.53
2019-04-07T08:55:48.598Z,25.07
2019-04-07T08:58:25.095Z,26.27
2019-04-07T09:00:51.579Z,26.67
2019-04-07T09:03:18.858Z,26.47
2019-04-07T09:05:46.814Z,24.23
2019-04-07T09:08:14.951Z,23.43
2019-04-07T09:10:49.628Z,21.30
2019-04-07T09:13:17.478Z,22.37
2019-04-07T09:16:04.643Z,21.63
2019-04-07T09:19:00.019Z,22.03
2019-04-07T09:21:38.813Z,23.30
2019-04-07T09:24:18.815Z,25.67
2019-04-07T09:27:01.123Z,24.50
2019-04-07T09:29:48.799Z,22.50
2019-04-07T09:32:36.300Z,20.50
2019-04-07T09:35:25.813Z,19.80
2019-04-07T09:38:11.640Z,21.03
2019-04-07T09:40:52.730Z,23.90
2019-04-07T09:43:39.252Z,23.10
2019-04-07T09:46:33.633Z,23.40
2019-04-07T09:49:22.319Z,22.47
2019-04-07T09:51:58.749Z,22.23
2019-04-07T09:54:46.109Z,23.60
2019-04-07T09:57:20.119Z,20.77
2019-04-07T10:00:14.486Z,19.63
2019-04-07T10:03:18.087Z,19.97
2019-04-07T10:06:14.179Z,20.50
2019-04-07T10:09:05.518Z,20.23
2019-04-07T10:12:04.849Z,18.47
2019-04-07T10:15:02.012Z,15.27
2019-04-07T10:17:56.483Z,13.53
2019-04-07T10:20:39.725Z,13.40
2019-04-07T10:23:30.054Z,13.47
2019-04-07T10:26:13.068Z,15.13
2019-04-07T10:29:00.618Z,13.80
2019-04-07T10:31:42.488Z,13.27
2019-04-07T10:34:33.140Z,14.23
2019-04-07T10:37:18.890Z,13.63
2019-04-07T10:40:18.841Z,13.70
2019-04-07T10:42:54.687Z,13.47
2019-04-07T10:45:31.173Z,12.63
2019-04-07T10:48:17.923Z,16.30
2019-04-07T10:50:55.547Z,14.07
2019-04-07T10:53:49.308Z,12.87
2019-04-07T10:56:25.404Z,12.80
2019-04-07T10:59:30.982Z,13.37
2019-04-07T11:02:30.397Z,13.47
2019-04-07T11:05:18.423Z,13.80
2019-04-07T11:08:06.155Z,13.40
2019-04-07T11:11:02.205Z,18.43
2019-04-07T11:13:40.890Z,13.90
2019-04-07T11:16:28.455Z,14.33
2019-04-07T11:19:15.758Z,14.80
2019-04-07T11:22:01.959Z,13.83
2019-04-07T11:24:55.831Z,14.43
2019-04-07T11:28:02.594Z,16.33
2019-04-07T11:30:47.566Z,13.83
2019-04-07T11:33:26.917Z,15.93
2019-04-07T11:36:13.821Z,13.90
2019-04-07T11:39:01.224Z,14.70
2019-04-07T11:41:54.715Z,14.53
2019-04-07T11:44:57.539Z,13.70
2019-04-07T11:47:43.582Z,14.60
2019-04-07T11:50:17.774Z,14.37
2019-04-07T11:53:05.187Z,14.20
2019-04-07T11:55:48.627Z,14.30
2019-04-07T11:58:42.028Z,14.03
2019-04-07T12:01:32.756Z,16.30
2019-04-07T12:04:35.674Z,17.57
2019-04-07T12:07:21.871Z,15.37
2019-04-07T12:10:08.323Z,16.43
2019-04-07T12:12:54.899Z,16.27
2019-04-07T12:15:43.003Z,15.20
2019-04-07T12:18:35.270Z,16.67
2019-04-07T12:21:19.395Z,16.10
2019-04-07T12:24:18.942Z,12.90
2019-04-07T12:27:12.207Z,12.17
2019-04-07T12:29:44.672Z,12.20
2019-04-07T12:32:32.509Z,13.07
2019-04-07T12:35:28.945Z,11.20
2019-04-07T12:38:14.294Z,11.17
2019-04-07T12:41:13.475Z,11.37
2019-04-07T12:43:51.585Z,10.23
2019-04-07T12:46:31.086Z,11.53
2019-04-07T12:49:09.394Z,10.97
2019-04-07T12:52:00.223Z,11.67
2019-04-07T12:54:53.616Z,11.37
2019-04-07T12:57:40.955Z,11.57
2019-04-07T13:00:24.749Z,11.20
2019-04-07T13:03:15.036Z,9.37
2019-04-07T13:06:04.108Z,8.77
2019-04-07T13:09:03.978Z,11.60
2019-04-07T13:11:40.212Z,8.97
2019-04-07T13:14:29.041Z,8.50
2019-04-07T13:17:31.907Z,8.47
2019-04-07T13:20:08.477Z,8.07
2019-04-07T13:22:42.786Z,8.43
2019-04-07T13:25:31.315Z,7.90
2019-04-07T13:28:19.540Z,8.70
2019-04-07T13:31:22.011Z,9.33
2019-04-07T13:34:10.919Z,9.83
2019-04-07T13:36:51.892Z,10.73
2019-04-07T13:39:40.761Z,9.60
2019-04-07T13:42:13.238Z,32.63
2019-04-07T13:45:02.505Z,11.50
2019-04-07T13:47:51.470Z,11.50
2019-04-07T13:50:42.284Z,10.13
2019-04-07T13:53:48.331Z,9.43
2019-04-07T13:56:53.793Z,10.63
2019-04-07T13:59:45.220Z,11.00
2019-04-07T14:02:31.584Z,10.13
2019-04-07T14:05:09.034Z,11.40
2019-04-07T14:07:51.574Z,10.63
2019-04-07T14:10:37.267Z,12.60
2019-04-07T14:13:24.626Z,12.73
2019-04-07T14:16:11.843Z,11.77
2019-04-07T14:19:12.413Z,11.30
2019-04-07T14:22:00.028Z,12.00
2019-04-07T14:24:56.905Z,13.03
2019-04-07T14:27:31.568Z,12.10
2019-04-07T14:30:24.928Z,14.40
2019-04-07T14:33:11.304Z,15.17
2019-04-07T14:35:45.395Z,12.97
2019-04-07T14:38:30.114Z,11.20
2019-04-07T14:41:16.371Z,9.67
2019-04-07T14:44:03.115Z,10.63
2019-04-07T14:47:06.510Z,10.93
2019-04-07T14:50:00.546Z,10.60
2019-04-07T14:52:41.480Z,10.83
2019-04-07T14:55:28.873Z,10.83
2019-04-07T14:58:04.604Z,9.67
2019-04-07T15:00:54.727Z,9.77
2019-04-07T15:03:23.444Z,9.57
2019-04-07T15:05:55.168Z,9.63
2019-04-07T15:08:47.480Z,10.43
2019-04-07T15:11:35.819Z,10.63
2019-04-07T15:14:04.197Z,9.70
2019-04-07T15:16:32.886Z,9.63
2019-04-07T15:19:01.123Z,9.57
2019-04-07T15:21:29.846Z,9.30
2019-04-07T15:24:01.748Z,9.57
2019-04-07T15:26:28.202Z,10.87
2019-04-07T15:28:58.212Z,11.60
2019-04-07T15:31:26.412Z,11.43
2019-04-07T15:33:55.238Z,11.13
2019-04-07T15:36:24.134Z,11.87
2019-04-07T15:38:55.509Z,11.27
2019-04-07T15:41:22.266Z,11.33
2019-04-07T15:43:50.290Z,11.70
2019-04-07T15:46:19.549Z,10.47
2019-04-07T15:48:48.332Z,11.00
2019-04-07T15:51:16.444Z,12.73
2019-04-07T15:53:49.947Z,12.63
2019-04-07T15:56:33.717Z,15.93
2019-04-07T15:59:02.363Z,18.20
2019-04-07T16:01:30.401Z,18.87
2019-04-07T16:03:59.205Z,18.10
2019-04-07T16:06:28.017Z,17.27
2019-04-07T16:08:59.591Z,13.53
2019-04-07T16:11:28.322Z,12.00
2019-04-07T16:13:55.496Z,11.10
2019-04-07T16:16:27.246Z,9.93
2019-04-07T16:18:53.201Z,11.53
2019-04-07T16:21:21.148Z,11.50
2019-04-07T16:23:52.668Z,10.33
2019-04-07T16:26:19.628Z,10.53
2019-04-07T16:28:48.420Z,10.57
2019-04-07T16:31:19.856Z,10.40
2019-04-07T16:33:47.316Z,8.63
2019-04-07T16:36:15.152Z,8.37
2019-04-07T16:38:43.265Z,9.87
2019-04-07T16:41:13.620Z,10.10
2019-04-07T16:43:41.968Z,10.63
2019-04-07T16:46:13.241Z,9.47
2019-04-07T16:48:40.322Z,10.70
2019-04-07T16:51:09.172Z,18.37
2019-04-07T16:53:39.059Z,10.47
2019-04-07T16:56:07.486Z,9.60
2019-04-07T16:58:38.565Z,10.83
2019-04-07T17:01:05.776Z,10.13
2019-04-07T17:03:34.449Z,10.63
2019-04-07T17:06:02.959Z,8.83
2019-04-07T17:08:31.805Z,7.43
2019-04-07T17:11:04.392Z,6.60
2019-04-07T17:13:37.429Z,6.50
2019-04-07T17:15:59.574Z,6.27
2019-04-07T17:18:40.940Z,5.30
2019-04-07T17:21:12.593Z,5.53
2019-04-07T17:23:40.777Z,6.77
2019-04-07T17:26:09.515Z,4.57
2019-04-07T17:28:37.776Z,4.50
2019-04-07T17:31:05.940Z,4.57
2019-04-07T17:33:36.883Z,6.77
2019-04-07T17:36:04.112Z,8.90
2019-04-07T17:38:55.143Z,15.40
2019-04-07T17:41:23.509Z,10.43
2019-04-07T17:44:16.947Z,5.70
2019-04-07T17:47:02.854Z,7.40
2019-04-07T17:49:59.010Z,7.07
2019-04-07T17:52:48.255Z,7.43
2019-04-07T17:55:45.783Z,5.30
2019-04-07T17:58:42.537Z,5.10
2019-04-07T18:01:32.944Z,9.90
2019-04-07T18:04:18.963Z,5.77
2019-04-07T18:07:10.004Z,5.73
2019-04-07T18:09:51.352Z,5.83
2019-04-07T18:12:37.855Z,13.07
2019-04-07T18:15:24.309Z,13.50
2019-04-07T18:18:18.813Z,6.67
2019-04-07T18:21:04.816Z,6.10
2019-04-07T18:23:53.939Z,6.10
2019-04-07T18:26:46.317Z,7.80
2019-04-07T18:29:36.639Z,6.97
2019-04-07T18:32:36.264Z,6.80
2019-04-07T18:35:30.778Z,7.67
2019-04-07T18:38:14.070Z,7.60
2019-04-07T18:40:49.564Z,9.20
2019-04-07T18:43:49.077Z,7.43
2019-04-07T18:46:29.892Z,4.87
2019-04-07T18:49:20.376Z,5.70
2019-04-07T18:52:22.293Z,6.23
2019-04-07T18:55:14.892Z,9.57
2019-04-07T18:58:20.411Z,5.60
2019-04-07T19:01:13.635Z,4.47
2019-04-07T19:03:53.256Z,4.93
2019-04-07T19:06:48.919Z,8.27
2019-04-07T19:09:46.192Z,6.20
2019-04-07T19:12:34.342Z,5.20
2019-04-07T19:15:16.270Z,6.07
2019-04-07T19:18:09.926Z,5.37
2019-04-07T19:21:03.133Z,5.20
2019-04-07T19:23:39.815Z,5.10
2019-04-07T19:26:27.831Z,4.47
2019-04-07T19:29:14.167Z,4.13
2019-04-07T19:31:58.154Z,3.80
2019-04-07T19:34:48.270Z,3.53
2019-04-07T19:37:36.717Z,4.27
2019-04-07T19:40:16.694Z,4.23
2019-04-07T19:42:50.855Z,4.13
2019-04-07T19:45:43.971Z,3.90
2019-04-07T19:48:36.466Z,3.07
2019-04-07T19:51:28.383Z,3.37
2019-04-07T19:54:13.574Z,4.20
2019-04-07T19:57:00.921Z,4.73
2019-04-07T19:59:44.589Z,4.73
2019-04-07T20:02:34.930Z,5.20
2019-04-07T20:05:19.850Z,5.33
2019-04-07T20:08:19.128Z,5.77
2019-04-07T20:11:04.911Z,6.03
2019-04-07T20:13:52.980Z,6.47
2019-04-07T20:16:49.106Z,5.70
2019-04-07T20:19:41.261Z,6.30
2019-04-07T20:22:28.858Z,6.20
2019-04-07T20:25:17.093Z,5.97
2019-04-07T20:28:02.291Z,5.33
2019-04-07T20:30:50.074Z,6.37
2019-04-07T20:33:36.945Z,7.33
2019-04-07T20:36:20.280Z,8.20
2019-04-07T20:39:04.042Z,8.73
2019-04-07T20:42:06.755Z,7.00
2019-04-07T20:45:05.694Z,6.17
2019-04-07T20:47:59.205Z,7.87
2019-04-07T20:50:45.054Z,5.40
2019-04-07T20:53:35.070Z,4.70
2019-04-07T20:56:22.846Z,4.90
2019-04-07T20:59:10.186Z,4.90
2019-04-07T21:02:03.361Z,4.43
2019-04-07T21:04:55.669Z,4.10
2019-04-07T21:08:01.159Z,3.70
2019-04-07T21:10:58.081Z,3.53
2019-04-07T21:13:51.400Z,3.63
2019-04-07T21:16:38.363Z,3.20
2019-04-07T21:19:25.614Z,3.40
2019-04-07T21:22:06.803Z,3.07
2019-04-07T21:24:42.163Z,3.30
2019-04-07T21:27:14.385Z,3.20
2019-04-07T21:29:57.923Z,3.20
2019-04-07T21:32:52.432Z,2.83
2019-04-07T21:35:50.316Z,2.87
2019-04-07T21:38:43.693Z,2.70
2019-04-07T21:41:45.205Z,2.77
2019-04-07T21:44:31.726Z,2.67
2019-04-07T21:47:23.537Z,2.30
2019-04-07T21:50:12.686Z,2.40
2019-04-07T21:52:52.921Z,2.50
2019-04-07T21:55:47.903Z,1.97
2019-04-07T21:58:54.015Z,2.17
2019-04-07T22:01:39.913Z,2.20
2019-04-07T22:04:18.889Z,1.90
2019-04-07T22:07:04.819Z,2.00
2019-04-07T22:09:54.643Z,1.87
2019-04-07T22:12:25.679Z,2.20
2019-04-07T22:14:52.816Z,2.10
2019-04-07T22:17:21.330Z,2.10
2019-04-07T22:19:49.357Z,2.47
2019-04-07T22:22:17.393Z,2.90
2019-04-07T22:24:46.351Z,2.50
2019-04-07T22:27:15.303Z,3.00
2019-04-07T22:29:44.906Z,2.60
2019-04-07T22:32:17.404Z,3.60
2019-04-07T22:34:42.767Z,3.37
2019-04-07T22:37:10.729Z,3.80
2019-04-07T22:39:39.658Z,3.13
2019-04-07T22:42:08.560Z,3.53
2019-04-07T22:44:37.659Z,3.10
2019-04-07T22:47:05.622Z,2.87
2019-04-07T22:49:33.714Z,2.23
2019-04-07T22:52:01.681Z,2.23
2019-04-07T22:54:30.969Z,2.30
2019-04-07T22:56:59.102Z,1.77
2019-04-07T22:59:28.011Z,1.70
2019-04-07T23:01:55.960Z,1.70
2019-04-07T23:04:24.005Z,1.67
2019-04-07T23:06:52.331Z,1.77
2019-04-07T23:09:20.411Z,1.70
2019-04-07T23:11:48.346Z,1.60
2019-04-07T23:14:16.282Z,2.23
2019-04-07T23:16:44.336Z,1.90
2019-04-07T23:19:12.466Z,1.70
2019-04-07T23:21:40.582Z,1.67
2019-04-07T23:24:08.344Z,2.13
2019-04-07T23:26:36.252Z,2.10
2019-04-07T23:29:04.278Z,1.97
2019-04-07T23:31:34.213Z,1.87
2019-04-07T23:34:02.825Z,2.47
2019-04-07T23:36:30.843Z,2.07
2019-04-07T23:38:58.836Z,2.50
2019-04-07T23:41:27.736Z,2.60
2019-04-07T23:43:56.756Z,2.53
2019-04-07T23:46:27.149Z,3.17
2019-04-07T23:48:54.531Z,3.00
2019-04-07T23:51:23.272Z,3.17
2019-04-07T23:54:10.909Z,3.07
2019-04-07T23:56:39.684Z,3.00
2019-04-07T23:59:08.167Z,3.03
